Bloomfield, Indiana
Current Conditions -  °F | °C
As of 7:53 PM on Saturday 22 Nov 2014 (Local Time) from KBMG Reporting Station
Overcast Overcast  
Wind Chill: 55°   Ceiling: 6500
Heat Index: 55°   Visibility: 10mi
Dew Point: 40°   Wind: 10mph
Humidity: 57%   Direction: 180°S
Pressure: 30.03"   Gusts: NA
Location:  39.03°N, 86.94°W
Report Text: KBMG 230053Z 18009KT 10SM FEW050 BKN065 OVC100 13/04 A3003 RMK AO2 SLP169 T01280044
Loading
Personal Weather Stations






























Interactive Weather Map New forecast layout! Learn more

10-Day Weather Forecast

Advertisements
Track Severe Weather on mobile